Säätilassa ei varoituksia.

Lähimmät METAR asemat

 

EFPO - Pori (mil/Civ), Finland
Distance from station: PLU 42km
Päivitetty: 11/07/2020 01:50
Selkeätä
Selkeätä
 Wind from varies
Tuuli: varies 2 km/h
Lämpötila: 10°C
Kastepiste: 9°C
Kosteus: 94%
Ilmanpaine: 1007 hPa
Yhteenveto: Selkeätä
Visibility: greater than 10 km
2020/07/10 22:50 EFPO 102250Z AUTO VRB01KT CAVOK 10/09 Q1007
EFTU - Turku/Abo, Finland
Distance from station: E 68km
Päivitetty: 11/07/2020 01:50
Selkeätä
Selkeätä
 Wind from IKO
Tuuli: IKO 4 km/h
Lämpötila: 10°C
Kastepiste: 9°C
Kosteus: 94%
Ilmanpaine: 1007 hPa
Yhteenveto: Selkeätä
Visibility: greater than 10 km
2020/07/10 22:50 EFTU 102250Z AUTO 07002KT CAVOK 10/09 Q1007
 
EFTP - Tampere/Pirkkala, Finland
Distance from station: IKO 84km
Päivitetty: 11/07/2020 01:50
Selkeätä
Selkeätä
 Wind from varies
Tuuli: varies 2 km/h
Lämpötila: 8°C
Kastepiste: 8°C
Kosteus: 100%
Ilmanpaine: 1008 hPa
Yhteenveto: Selkeätä
Visibility: greater than 10 km
2020/07/10 22:50 EFTP 102250Z AUTO VRB01KT CAVOK 08/08 Q1008